| time (UTC) | temp F | wind direction | speed knots | gust knots | rain 1hr in | rain 24hr in | rain mn in | humidity % | barometer mb |
| 20260504151040 | 62 | 93 | 0.0 | 1.7 | 0.00 | 0.00 | 0.00 | 48 | 1000.4 |
| 20260504150807 | 62 | 92 | 0.9 | 2.6 | 0.00 | 0.00 | 0.00 | 52 | 1000.4 |
| 20260504150309 | 61 | 93 | 0.0 | 2.6 | 0.00 | 0.00 | 0.00 | 52 | 1000.4 |
| 20260504141032 | 61 | 93 | 0.0 | 1.7 | 0.00 | 0.00 | 0.00 | 45 | 1000.6 |
| 20260504140532 | 60 | 92 | 0.0 | 1.7 | 0.00 | 0.00 | 0.00 | 46 | 1000.5 |
| 20260504140303 | 60 | 92 | 0.0 | 0.9 | 0.00 | 0.00 | 0.00 | 47 | 1000.5 |
| 20260504130532 | 55 | 93 | 0.0 | 0.9 | 0.00 | 0.00 | 0.00 | 60 | 1000.8 |
| 20260504130303 | 54 | 93 | 0.0 | 1.7 | 0.00 | 0.00 | 0.00 | 60 | 1000.9 |
| 20260504110614 | 0 | 0.0 | 0.0 | 0.00 | 0.00 | 0.00 | 1001.5 | ||
| 20260504110105 | 0 | 0.0 | 0.0 | 0.00 | 0.00 | 0.00 | 1001.4 | ||
| 20260504100208 | 0 | 0.0 | 0.0 | 0.00 | 0.00 | 0.00 | 1001.3 | ||
| 20260504081838 | 48 | 93 | 0.0 | 0.0 | 0.00 | 0.00 | 0.00 | 70 | 1001.7 |
| 20260504081102 | 48 | 93 | 0.0 | 0.0 | 0.00 | 0.00 | 0.00 | 70 | 1001.6 |
| 20260504080827 | 48 | 92 | 0.0 | 0.0 | 0.00 | 0.00 | 0.00 | 71 | 1001.6 |
| 20260504050252 | 43 | 93 | 0.0 | 0.0 | 0.00 | 0.00 | 0.00 | 73 | 1002.2 |
| 20260504050022 | 43 | 93 | 0.0 | 0.0 | 0.00 | 0.00 | 0.00 | 73 | 1002.1 |
| 20260504045252 | 43 | 93 | 0.0 | 0.0 | 0.00 | 0.00 | 0.00 | 73 | 1002.1 |
| 20260504044752 | 43 | 93 | 0.0 | 0.0 | 0.00 | 0.00 | 0.00 | 73 | 1002.1 |
| 20260504044250 | 43 | 93 | 0.0 | 0.0 | 0.00 | 0.00 | 0.00 | 73 | 1002.2 |
| 20260504043750 | 43 | 93 | 0.0 | 0.0 | 0.00 | 0.00 | 0.00 | 72 | 1002.1 |
| 20260504043248 | 43 | 93 | 0.0 | 0.0 | 0.00 | 0.00 | 0.00 | 72 | 1002.1 |
| 20260504042748 | 43 | 93 | 0.0 | 0.0 | 0.00 | 0.00 | 0.00 | 71 | 1002.1 |
| 20260504042247 | 44 | 93 | 0.0 | 0.0 | 0.00 | 0.00 | 0.00 | 71 | 1002.0 |
| 20260504041746 | 44 | 93 | 0.0 | 0.0 | 0.00 | 0.00 | 0.00 | 71 | 1002.0 |
| 20260504041245 | 44 | 93 | 0.0 | 0.0 | 0.00 | 0.00 | 0.00 | 70 | 1002.0 |
| 20260504040740 | 44 | 93 | 0.0 | 0.0 | 0.00 | 0.00 | 0.00 | 70 | 1002.0 |
| 20260504040234 | 44 | 93 | 0.0 | 0.0 | 0.00 | 0.00 | 0.00 | 70 | 1002.0 |
| 20260504035733 | 44 | 92 | 0.0 | 0.0 | 0.00 | 0.00 | 0.00 | 69 | 1002.0 |
| 20260504035234 | 44 | 93 | 0.0 | 0.0 | 0.00 | 0.00 | 0.00 | 68 | 1002.0 |
| 20260504034734 | 44 | 93 | 0.0 | 0.0 | 0.00 | 0.00 | 0.00 | 68 | 1002.1 |
| 20260504034231 | 44 | 93 | 0.0 | 0.0 | 0.00 | 0.00 | 0.00 | 68 | 1002.1 |
| 20260504034006 | 44 | 93 | 0.0 | 0.0 | 0.00 | 0.00 | 0.00 | 68 | 1002.1 |
| 20260504033230 | 44 | 93 | 0.0 | 0.0 | 0.00 | 0.00 | 0.00 | 68 | 1002.1 |
| 20260504032958 | 44 | 93 | 0.0 | 0.0 | 0.00 | 0.00 | 0.00 | 67 | 1002.1 |
| 20260504032227 | 44 | 93 | 0.0 | 0.0 | 0.00 | 0.00 | 0.00 | 67 | 1002.0 |
| 20260504031726 | 44 | 93 | 0.0 | 0.0 | 0.00 | 0.00 | 0.00 | 67 | 1002.0 |
| 20260504031223 | 45 | 93 | 0.0 | 0.0 | 0.00 | 0.00 | 0.00 | 67 | 1001.9 |
| 20260504030723 | 45 | 93 | 0.0 | 0.0 | 0.00 | 0.00 | 0.00 | 67 | 1001.9 |
| 20260504030222 | 45 | 93 | 0.0 | 0.0 | 0.00 | 0.00 | 0.00 | 67 | 1001.9 |
| 20260504025722 | 45 | 93 | 0.0 | 0.0 | 0.00 | 0.00 | 0.00 | 67 | 1001.9 |
| 20260504025222 | 45 | 93 | 0.0 | 0.0 | 0.00 | 0.00 | 0.00 | 67 | 1001.8 |
| 20260504024722 | 45 | 93 | 0.0 | 0.0 | 0.00 | 0.00 | 0.00 | 67 | 1001.8 |
| 20260504024450 | 46 | 93 | 0.0 | 0.0 | 0.00 | 0.00 | 0.00 | 66 | 1001.7 |
| 20260504023720 | 46 | 93 | 0.0 | 0.0 | 0.00 | 0.00 | 0.00 | 66 | 1001.7 |
| 20260504023220 | 46 | 93 | 0.0 | 0.0 | 0.00 | 0.00 | 0.00 | 65 | 1001.6 |
| 20260504022948 | 46 | 93 | 0.0 | 0.0 | 0.00 | 0.00 | 0.00 | 64 | 1001.6 |
| 20260504022217 | 46 | 93 | 0.0 | 0.0 | 0.00 | 0.00 | 0.00 | 63 | 1001.6 |
| 20260504021718 | 47 | 93 | 0.0 | 0.0 | 0.00 | 0.00 | 0.00 | 62 | 1001.6 |
| 20260504021217 | 47 | 93 | 0.0 | 0.0 | 0.00 | 0.00 | 0.00 | 62 | 1001.6 |
| 20260504020949 | 47 | 93 | 0.0 | 0.0 | 0.00 | 0.00 | 0.00 | 61 | 1001.5 |
| 20260504020444 | 47 | 93 | 0.0 | 0.0 | 0.00 | 0.00 | 0.00 | 61 | 1001.4 |
| 20260504015714 | 48 | 93 | 0.0 | 0.0 | 0.00 | 0.00 | 0.00 | 59 | 1001.4 |
| 20260504015214 | 48 | 93 | 0.0 | 0.0 | 0.00 | 0.00 | 0.00 | 58 | 1001.3 |
| 20260504014713 | 48 | 93 | 0.0 | 0.0 | 0.00 | 0.00 | 0.00 | 57 | 1001.3 |
| 20260504014214 | 49 | 93 | 0.0 | 0.0 | 0.00 | 0.00 | 0.00 | 57 | 1001.3 |
| 20260504013713 | 49 | 93 | 0.0 | 0.0 | 0.00 | 0.00 | 0.00 | 56 | 1001.3 |
| 20260504013213 | 49 | 93 | 0.0 | 0.0 | 0.00 | 0.00 | 0.00 | 56 | 1001.3 |
| 20260504012713 | 50 | 92 | 0.0 | 0.0 | 0.00 | 0.00 | 0.00 | 54 | 1001.1 |
| 20260504012214 | 50 | 93 | 0.0 | 0.0 | 0.00 | 0.00 | 0.00 | 54 | 1001.1 |
| 20260504011710 | 51 | 93 | 0.0 | 0.0 | 0.00 | 0.00 | 0.00 | 53 | 1001.1 |
| 20260504011209 | 51 | 92 | 0.0 | 0.0 | 0.00 | 0.00 | 0.00 | 52 | 1001.1 |
| 20260504010443 | 52 | 93 | 0.0 | 0.0 | 0.00 | 0.00 | 0.00 | 49 | 1001.0 |
| 20260504005209 | 53 | 93 | 0.0 | 0.0 | 0.00 | 0.00 | 0.00 | 47 | 1001.1 |
| 20260504004709 | 53 | 92 | 0.0 | 0.0 | 0.00 | 0.00 | 0.00 | 46 | 1001.0 |
| 20260504004209 | 54 | 92 | 0.0 | 0.0 | 0.00 | 0.00 | 0.00 | 46 | 1000.9 |
| 20260504003710 | 54 | 93 | 0.0 | 0.0 | 0.00 | 0.00 | 0.00 | 45 | 1000.9 |
| 20260504003208 | 55 | 93 | 0.0 | 0.0 | 0.00 | 0.00 | 0.00 | 44 | 1000.9 |
| 20260504002707 | 55 | 92 | 0.0 | 0.0 | 0.00 | 0.00 | 0.00 | 42 | 1000.8 |
| 20260504002207 | 56 | 93 | 0.0 | 0.0 | 0.00 | 0.00 | 0.00 | 40 | 1000.8 |
| 20260504001937 | 56 | 93 | 0.0 | 0.0 | 0.00 | 0.00 | 0.00 | 39 | 1000.8 |
| 20260504001208 | 57 | 92 | 0.0 | 0.0 | 0.00 | 0.00 | 0.00 | 38 | 1000.8 |
| 20260504000703 | 57 | 92 | 0.0 | 0.0 | 0.00 | 0.00 | 0.00 | 37 | 1000.8 |
| 20260504000201 | 58 | 92 | 0.0 | 0.0 | 0.00 | 0.00 | 0.00 | 37 | 1000.7 |
| 20260503235932 | 58 | 93 | 0.0 | 0.0 | 0.00 | 0.00 | 0.00 | 35 | 1000.6 |
| 20260503235202 | 59 | 93 | 0.0 | 0.0 | 0.00 | 0.00 | 0.00 | 35 | 1000.7 |
| 20260503234659 | 59 | 93 | 0.0 | 0.0 | 0.00 | 0.00 | 0.00 | 35 | 1000.6 |
| 20260503234200 | 60 | 93 | 0.0 | 0.9 | 0.00 | 0.00 | 0.00 | 34 | 1000.6 |
| 20260503233655 | 60 | 93 | 0.0 | 1.7 | 0.00 | 0.00 | 0.00 | 34 | 1000.5 |
| 20260503233155 | 60 | 93 | 0.0 | 1.7 | 0.00 | 0.00 | 0.00 | 33 | 1000.5 |
| 20260503232653 | 60 | 93 | 0.0 | 0.9 | 0.00 | 0.00 | 0.00 | 33 | 1000.5 |
| 20260503232155 | 61 | 93 | 0.0 | 0.0 | 0.00 | 0.00 | 0.00 | 32 | 1000.4 |
| 20260503231649 | 61 | 93 | 0.0 | 0.9 | 0.00 | 0.00 | 0.00 | 32 | 1000.4 |
| 20260503231143 | 61 | 93 | 0.0 | 0.9 | 0.00 | 0.00 | 0.00 | 33 | 1000.3 |
| 20260503230907 | 61 | 92 | 0.0 | 0.9 | 0.00 | 0.00 | 0.00 | 32 | 1000.2 |
| 20260503230131 | 61 | 93 | 0.0 | 0.9 | 0.00 | 0.00 | 0.00 | 32 | 1000.2 |
| 20260503225625 | 61 | 93 | 0.0 | 0.9 | 0.00 | 0.00 | 0.00 | 31 | 1000.1 |
| 20260503225118 | 61 | 93 | 0.0 | 0.9 | 0.00 | 0.00 | 0.00 | 31 | 1000.2 |
| 20260503224617 | 61 | 93 | 0.0 | 0.9 | 0.00 | 0.00 | 0.00 | 31 | 1000.2 |
| 20260503224117 | 61 | 93 | 0.0 | 1.7 | 0.00 | 0.00 | 0.00 | 32 | 1000.3 |
| 20260503223848 | 62 | 92 | 0.0 | 1.7 | 0.00 | 0.00 | 0.00 | 31 | 1000.3 |
| 20260503223117 | 62 | 92 | 0.9 | 2.6 | 0.00 | 0.00 | 0.00 | 31 | 1000.3 |
| 20260503222617 | 62 | 93 | 0.9 | 2.6 | 0.00 | 0.00 | 0.00 | 31 | 1000.4 |
| 20260503222347 | 62 | 93 | 0.0 | 2.6 | 0.00 | 0.00 | 0.00 | 32 | 1000.3 |
| 20260503221617 | 62 | 92 | 0.0 | 0.9 | 0.00 | 0.00 | 0.00 | 32 | 1000.3 |
| 20260503221348 | 62 | 93 | 0.0 | 0.9 | 0.00 | 0.00 | 0.00 | 31 | 1000.3 |
| 20260503220615 | 62 | 92 | 0.0 | 1.7 | 0.00 | 0.00 | 0.00 | 34 | 1000.4 |
| 20260503220113 | 62 | 93 | 0.0 | 1.7 | 0.00 | 0.00 | 0.00 | 32 | 1000.3 |
| 20260503215611 | 62 | 92 | 0.0 | 2.6 | 0.00 | 0.00 | 0.00 | 31 | 1000.3 |
| 20260503215111 | 62 | 93 | 0.9 | 3.5 | 0.00 | 0.00 | 0.00 | 31 | 1000.3 |
| 20260503214609 | 62 | 91 | 0.9 | 3.5 | 0.00 | 0.00 | 0.00 | 30 | 1000.4 |
| 20260503214109 | 62 | 91 | 0.9 | 2.6 | 0.00 | 0.00 | 0.00 | 31 | 1000.4 |
| 20260503213609 | 62 | 91 | 0.9 | 3.5 | 0.00 | 0.00 | 0.00 | 31 | 1000.4 |
| 20260503213102 | 62 | 91 | 0.9 | 3.5 | 0.00 | 0.00 | 0.00 | 31 | 1000.5 |
| 20260503212556 | 62 | 92 | 0.9 | 2.6 | 0.00 | 0.00 | 0.00 | 32 | 1000.6 |
| 20260503212051 | 62 | 91 | 0.9 | 4.3 | 0.00 | 0.00 | 0.00 | 32 | 1000.6 |
| 20260503211815 | 61 | 91 | 0.9 | 7.8 | 0.00 | 0.00 | 0.00 | 31 | 1000.6 |
| 20260503211038 | 61 | 91 | 0.0 | 7.8 | 0.00 | 0.00 | 0.00 | 31 | 1000.6 |
| 20260503210533 | 61 | 91 | 0.0 | 1.7 | 0.00 | 0.00 | 0.00 | 32 | 1000.4 |
| 20260503210026 | 61 | 91 | 0.0 | 2.6 | 0.00 | 0.00 | 0.00 | 31 | 1000.4 |
| 20260503205520 | 61 | 91 | 0.9 | 4.3 | 0.00 | 0.00 | 0.00 | 33 | 1000.6 |
| 20260503205015 | 61 | 91 | 0.9 | 7.0 | 0.00 | 0.00 | 0.00 | 32 | 1000.6 |
| 20260503204509 | 61 | 91 | 0.9 | 7.0 | 0.00 | 0.00 | 0.00 | 31 | 1000.8 |
| 20260503204003 | 61 | 91 | 0.9 | 3.5 | 0.00 | 0.00 | 0.00 | 32 | 1000.8 |
| 20260503203727 | 61 | 91 | 0.9 | 3.5 | 0.00 | 0.00 | 0.00 | 32 | 1000.8 |
| 20260503202950 | 61 | 91 | 0.9 | 5.2 | 0.00 | 0.00 | 0.00 | 33 | 1000.8 |
| 20260503202445 | 61 | 91 | 0.9 | 5.2 | 0.00 | 0.00 | 0.00 | 33 | 1000.8 |
| 20260503201939 | 61 | 91 | 0.9 | 4.3 | 0.00 | 0.00 | 0.00 | 34 | 1000.9 |
| 20260503201704 | 60 | 91 | 0.9 | 3.5 | 0.00 | 0.00 | 0.00 | 33 | 1000.8 |
| 20260503200926 | 60 | 91 | 0.9 | 3.5 | 0.00 | 0.00 | 0.00 | 33 | 1000.9 |
| 20260503200421 | 60 | 92 | 0.9 | 7.0 | 0.00 | 0.00 | 0.00 | 32 | 1001.0 |
| 20260503195915 | 60 | 89 | 0.9 | 7.0 | 0.00 | 0.00 | 0.00 | 33 | 1001.1 |
| 20260503195409 | 60 | 88 | 0.9 | 6.1 | 0.00 | 0.00 | 0.00 | 36 | 1001.2 |
| 20260503194902 | 60 | 88 | 0.9 | 3.5 | 0.00 | 0.00 | 0.00 | 36 | 1001.3 |
| 20260503194357 | 60 | 88 | 0.9 | 3.5 | 0.00 | 0.00 | 0.00 | 36 | 1001.5 |
| 20260503193850 | 60 | 88 | 0.9 | 3.5 | 0.00 | 0.00 | 0.00 | 37 | 1001.6 |
| 20260503193345 | 59 | 88 | 0.9 | 3.5 | 0.00 | 0.00 | 0.00 | 39 | 1001.5 |
| 20260503192838 | 59 | 88 | 0.9 | 4.3 | 0.00 | 0.00 | 0.00 | 38 | 1001.7 |
| 20260503192332 | 58 | 88 | 0.9 | 4.3 | 0.00 | 0.00 | 0.00 | 36 | 1001.8 |
| 20260503191826 | 58 | 88 | 0.9 | 4.3 | 0.00 | 0.00 | 0.00 | 39 | 1001.9 |
| 20260503191321 | 58 | 88 | 0.9 | 4.3 | 0.00 | 0.00 | 0.00 | 41 | 1001.9 |
| 20260503190815 | 57 | 88 | 0.9 | 6.1 | 0.00 | 0.00 | 0.00 | 39 | 1002.1 |
| 20260503190308 | 58 | 88 | 0.9 | 5.2 | 0.00 | 0.00 | 0.00 | 40 | 1002.1 |
| 20260503185803 | 58 | 88 | 0.9 | 5.2 | 0.00 | 0.00 | 0.00 | 39 | 1002.1 |
| 20260503185528 | 57 | 88 | 0.9 | 3.5 | 0.00 | 0.00 | 0.00 | 40 | 1002.2 |
| 20260503184751 | 57 | 88 | 0.9 | 3.5 | 0.00 | 0.00 | 0.00 | 42 | 1002.1 |
| 20260503184245 | 57 | 88 | 0.0 | 2.6 | 0.00 | 0.00 | 0.00 | 42 | 1002.3 |
| 20260503184010 | 56 | 88 | 0.9 | 3.5 | 0.00 | 0.00 | 0.00 | 44 | 1002.3 |
| 20260503183503 | 56 | 88 | 0.9 | 4.3 | 0.00 | 0.00 | 0.00 | 45 | 1002.4 |
| 20260503182726 | 55 | 88 | 0.9 | 3.5 | 0.00 | 0.00 | 0.00 | 44 | 1002.4 |
| 20260503182220 | 54 | 88 | 0.9 | 4.3 | 0.00 | 0.00 | 0.00 | 47 | 1002.5 |
| 20260503181714 | 53 | 88 | 0.9 | 4.3 | 0.00 | 0.00 | 0.00 | 49 | 1002.5 |
| 20260503181209 | 51 | 88 | 0.0 | 1.7 | 0.00 | 0.00 | 0.00 | 56 | 1002.4 |
| 20260503180702 | 51 | 88 | 0.0 | 2.6 | 0.00 | 0.00 | 0.00 | 55 | 1002.5 |
| 20260503180156 | 51 | 88 | 0.9 | 3.5 | 0.00 | 0.00 | 0.00 | 64 | 1002.5 |
| 20260503175652 | 51 | 88 | 0.9 | 7.0 | 0.00 | 0.00 | 0.00 | 53 | 1002.6 |
| 20260503175144 | 51 | 88 | 0.9 | 8.7 | 0.00 | 0.00 | 0.00 | 60 | 1002.6 |
| 20260503174144 | 50 | 88 | 0.9 | 4.3 | 0.00 | 0.00 | 0.00 | 57 | 1002.8 |
| 20260503173643 | 50 | 88 | 0.9 | 4.3 | 0.00 | 0.00 | 0.00 | 58 | 1002.9 |
| 20260503173143 | 50 | 88 | 0.9 | 3.5 | 0.00 | 0.00 | 0.00 | 55 | 1002.9 |
| 20260503172640 | 51 | 88 | 0.0 | 3.5 | 0.00 | 0.00 | 0.00 | 58 | 1002.9 |
| 20260503171643 | 51 | 88 | 0.9 | 5.2 | 0.00 | 0.00 | 0.00 | 56 | 1003.0 |
| 20260503171139 | 51 | 88 | 0.9 | 5.2 | 0.00 | 0.00 | 0.00 | 58 | 1003.0 |
| 20260503170639 | 52 | 88 | 0.0 | 1.7 | 0.00 | 0.00 | 0.00 | 53 | 1003.1 |
| 20260503170139 | 52 | 88 | 0.0 | 1.7 | 0.00 | 0.00 | 0.00 | 52 | 1003.0 |
| 20260503160126 | 54 | 88 | 0.9 | 3.5 | 0.00 | 0.00 | 0.00 | 42 | 1003.7 |